Time;durP1;ratioP1;P1;durP2;ratioP2;P2;SDS_P1;SDS_P2;PMS_P1;PMS_P2;Temp;Humidity;BMP_temperature;BMP_pressure;BME280_temperature;BME280_humidity;BME280_pressure;Samples;Min_cycle;Max_cycle;Signal;HPM_P1;HPM_P2
2021/12/24 00:01:28;;;;;;;4.72;0.47;;;;;;;2.48;100.00;100008.22;5084132;28;20036;-52
2021/12/24 00:03:53;;;;;;;4.60;1.02;;;;;;;2.37;100.00;100010.09;5082202;28;20048;-52
2021/12/24 00:06:19;;;;;;;5.38;0.68;;;;;;;2.48;100.00;100003.84;5086848;28;20476;-50
2021/12/24 00:08:46;;;;;;;0.98;0.52;;;;;;;2.66;100.00;100002.97;5076357;28;20038;-49
2021/12/24 00:11:13;;;;;;;1.38;0.38;;;;;;;2.74;100.00;99993.41;5074789;28;20059;-49
2021/12/24 00:13:42;;;;;;;1.20;0.70;;;;;;;2.79;100.00;99991.16;5067983;28;20029;-54
2021/12/24 00:19:15;;;;;;;1.02;0.50;;;;;;;2.69;100.00;99969.47;5086943;28;20405;-49
2021/12/24 00:35:13;;;;;;;11.23;3.13;;;;;;;2.48;100.00;99948.03;5081708;28;20042;-47
2021/12/24 00:37:41;;;;;;;8.88;3.95;;;;;;;2.39;100.00;99955.00;5085434;28;20375;-49
2021/12/24 00:40:26;;;;;;;3.22;1.65;;;;;;;2.31;100.00;99945.28;5085539;28;20032;-50
2021/12/24 00:42:54;;;;;;;3.35;1.40;;;;;;;2.24;100.00;99944.25;5084792;28;20045;-51
2021/12/24 00:45:26;;;;;;;3.65;1.67;;;;;;;2.16;100.00;99937.16;5082679;28;20028;-49
2021/12/24 00:47:52;;;;;;;5.07;1.88;;;;;;;2.09;100.00;99937.91;5083660;28;20041;-49
2021/12/24 00:50:22;;;;;;;2.38;1.23;;;;;;;2.03;100.00;99936.69;5086668;28;20047;-48
2021/12/24 00:52:51;;;;;;;3.83;2.22;;;;;;;1.91;100.00;99932.66;5086885;28;20088;-52
2021/12/24 00:55:22;;;;;;;4.55;2.00;;;;;;;1.90;100.00;99931.84;5084597;28;20120;-50
2021/12/24 00:57:50;;;;;;;4.25;1.65;;;;;;;1.85;100.00;99928.84;5085310;28;20740;-49
2021/12/24 01:00:21;;;;;;;6.35;2.40;;;;;;;1.80;100.00;99933.69;5084796;28;20382;-51
2021/12/24 01:02:47;;;;;;;2.70;1.65;;;;;;;1.80;100.00;99933.69;5083824;28;20032;-51
2021/12/24 01:05:13;;;;;;;4.15;1.77;;;;;;;1.80;100.00;99925.84;5081207;28;20024;-48
2021/12/24 01:07:40;;;;;;;1.98;0.98;;;;;;;1.71;100.00;99934.59;5076787;28;20109;-47
2021/12/24 01:10:07;;;;;;;8.80;1.13;;;;;;;1.51;100.00;99931.25;5068281;28;20441;-49
2021/12/24 01:12:33;;;;;;;2.45;0.75;;;;;;;1.19;100.00;99942.13;5077841;28;20416;-50
2021/12/24 01:14:58;;;;;;;1.55;0.98;;;;;;;0.96;100.00;99939.06;5067531;28;20407;-50
2021/12/24 01:20:31;;;;;;;1.05;0.30;;;;;;;0.80;100.00;99947.47;5082844;28;20039;-47
2021/12/24 01:28:38;;;;;;;1.05;0.28;;;;;;;0.80;100.00;99937.88;5084502;28;20406;-46
2021/12/24 01:39:25;;;;;;;0.20;0.20;;;;;;;0.59;100.00;99945.84;5070450;28;20067;-49
2021/12/24 01:44:36;;;;;;;1.30;0.00;;;;;;;0.39;100.00;99949.47;5067261;28;20455;-49
2021/12/24 01:47:05;;;;;;;0.45;0.30;;;;;;;0.33;100.00;99950.81;5086091;28;20534;-52
2021/12/24 01:49:32;;;;;;;3.05;1.02;;;;;;;0.30;100.00;99948.50;5084797;28;20031;-53
2021/12/24 01:51:58;;;;;;;1.55;0.50;;;;;;;0.29;100.00;99941.66;5069199;28;20131;-50
2021/12/24 01:54:24;;;;;;;2.63;1.35;;;;;;;0.30;100.00;99939.84;5077123;28;20028;-49
2021/12/24 01:56:50;;;;;;;0.32;0.30;;;;;;;0.30;100.00;99935.44;5085868;28;20043;-47
2021/12/24 01:59:16;;;;;;;0.60;0.52;;;;;;;0.32;100.00;99937.94;5085716;28;20396;-51
2021/12/24 02:01:41;;;;;;;1.65;1.13;;;;;;;0.33;100.00;99935.16;5084452;28;20146;-49
2021/12/24 02:04:07;;;;;;;1.48;0.70;;;;;;;0.30;100.00;99938.06;5080821;28;20437;-48
2021/12/24 02:06:33;;;;;;;3.13;0.65;;;;;;;0.42;100.00;99941.34;5083906;28;20032;-52
2021/12/24 02:08:58;;;;;;;3.35;0.55;;;;;;;0.82;100.00;99951.56;5084097;28;21366;-52
2021/12/24 02:11:24;;;;;;;6.72;1.25;;;;;;;1.34;100.00;99947.69;5073405;28;20036;-46
2021/12/24 02:13:50;;;;;;;7.00;1.20;;;;;;;1.88;100.00;99954.69;5068825;28;20496;-47
2021/12/24 02:29:39;;;;;;;16.58;3.10;;;;;;;3.57;100.00;99927.38;5067894;28;20584;-50
2021/12/24 02:32:05;;;;;;;6.47;1.67;;;;;;;3.64;100.00;99924.94;5077932;28;20052;-51
2021/12/24 02:34:30;;;;;;;10.90;2.90;;;;;;;3.65;100.00;99921.34;5078390;28;20392;-48
2021/12/24 02:36:55;;;;;;;8.88;2.60;;;;;;;3.68;100.00;99919.22;5072912;28;20029;-49
2021/12/24 02:39:21;;;;;;;5.88;1.83;;;;;;;3.78;100.00;99923.50;5070449;28;20045;-47
2021/12/24 02:41:46;;;;;;;5.65;1.88;;;;;;;3.85;100.00;99924.50;5070619;28;20580;-49
2021/12/24 02:44:12;;;;;;;83.05;4.93;;;;;;;3.93;100.00;99921.91;5079454;28;20029;-48
2021/12/24 02:47:05;;;;;;;6.18;2.42;;;;;;;3.99;100.00;99928.28;5090307;28;20032;-53
2021/12/24 02:53:57;;;;;;;7.07;1.48;;;;;;;3.96;100.00;99933.88;5085492;28;20043;-52
2021/12/24 02:54:52;;;;;;;9.27;2.72;;;;;;;4.03;100.00;99921.75;5069897;28;20051;-50
2021/12/24 02:57:21;;;;;;;7.68;2.00;;;;;;;4.10;100.00;99920.91;5089093;28;20459;-49
2021/12/24 02:59:58;;;;;;;26.05;4.22;;;;;;;4.12;100.00;99920.75;5077491;28;20028;-49
2021/12/24 03:02:24;;;;;;;5.97;1.90;;;;;;;4.17;100.00;99922.91;5087287;28;20061;-48
2021/12/24 03:04:49;;;;;;;18.42;1.88;;;;;;;4.17;100.00;99920.28;5083510;28;20440;-52
2021/12/24 03:07:15;;;;;;;8.23;2.72;;;;;;;4.16;100.00;99908.97;5070127;28;20086;-51
2021/12/24 03:09:40;;;;;;;14.60;2.38;;;;;;;4.17;100.00;99907.97;5071012;28;20493;-52
2021/12/24 03:12:06;;;;;;;2.67;1.23;;;;;;;4.23;100.00;99914.38;5070896;28;20545;-50
2021/12/24 03:14:31;;;;;;;5.00;2.72;;;;;;;4.21;100.00;99906.69;5081343;28;20039;-53
2021/12/24 03:17:00;;;;;;;14.00;3.35;;;;;;;4.22;100.00;99905.69;5088606;28;20028;-48
2021/12/24 03:19:32;;;;;;;3.35;1.90;;;;;;;4.26;100.00;99900.91;5088617;28;20084;-51
2021/12/24 03:22:13;;;;;;;6.68;1.90;;;;;;;4.28;100.00;99902.38;5072278;28;20040;-46
2021/12/24 03:24:39;;;;;;;;;;;;;;;4.31;100.00;99903.88;5082156;28;20074;-49
2021/12/24 03:27:07;;;;;;;5.88;1.00;;;;;;;4.34;100.00;99901.75;5082200;28;20014;-54
2021/12/24 03:29:33;;;;;;;7.40;1.42;;;;;;;4.37;100.00;99890.91;5071447;28;20033;-50
2021/12/24 03:31:58;;;;;;;3.40;1.10;;;;;;;4.38;100.00;99889.91;5079739;28;20557;-48
2021/12/24 03:34:24;;;;;;;1.98;0.80;;;;;;;4.40;100.00;99892.41;5077308;28;20117;-49
2021/12/24 03:36:51;;;;;;;1.02;0.60;;;;;;;4.46;100.00;99893.53;5083265;28;20043;-51
2021/12/24 03:39:16;;;;;;;4.43;1.00;;;;;;;4.53;100.00;99889.25;5073657;28;20489;-50
2021/12/24 03:41:43;;;;;;;3.20;1.05;;;;;;;4.57;100.00;99888.78;5068820;28;20051;-51
2021/12/24 03:44:11;;;;;;;6.38;1.33;;;;;;;4.59;100.00;99892.06;5078661;28;20031;-49
2021/12/24 03:47:08;;;;;;;8.40;1.52;;;;;;;4.56;100.00;99886.31;5084576;28;20107;-49
2021/12/24 03:54:56;;;;;;;1.00;0.80;;;;;;;4.78;100.00;99882.16;5057189;28;20043;-51
2021/12/24 03:57:28;;;;;;;5.72;1.20;;;;;;;4.79;100.00;99887.25;5088526;28;20434;-51
2021/12/24 03:59:55;;;;;;;3.83;1.23;;;;;;;4.82;100.00;99883.47;5087975;28;20085;-52
2021/12/24 04:02:20;;;;;;;3.28;1.80;;;;;;;4.86;100.00;99887.41;5077252;28;20054;-51
2021/12/24 04:04:46;;;;;;;5.82;1.15;;;;;;;4.93;100.00;99883.13;5086382;28;20051;-50
2021/12/24 04:07:12;;;;;;;6.53;1.13;;;;;;;4.98;100.00;99888.69;5082595;28;20047;-50
2021/12/24 04:09:43;;;;;;;1.02;0.52;;;;;;;4.94;100.00;99887.38;5083012;28;20393;-48
2021/12/24 04:12:08;;;;;;;1.38;0.70;;;;;;;4.92;100.00;99885.91;5086547;28;20036;-49
2021/12/24 04:14:34;;;;;;;8.60;2.50;;;;;;;4.95;100.00;99886.38;5070456;28;20436;-51
2021/12/24 04:16:59;;;;;;;4.25;1.30;;;;;;;5.04;100.00;99884.56;5085793;28;20442;-52
2021/12/24 04:24:56;;;;;;;4.45;0.77;;;;;;;5.07;100.00;99894.72;5087706;28;20101;-51
2021/12/24 04:27:26;;;;;;;1.67;0.40;;;;;;;5.11;100.00;99884.69;5087558;28;20031;-48
2021/12/24 04:29:58;;;;;;;1.65;0.60;;;;;;;5.21;100.00;99877.41;5085784;28;20043;-47
2021/12/24 04:32:33;;;;;;;1.85;0.57;;;;;;;5.21;100.00;99880.88;5075511;28;20127;-50
2021/12/24 04:35:14;;;;;;;1.13;0.40;;;;;;;5.19;100.00;99882.84;5076031;28;20036;-51
2021/12/24 04:51:24;;;;;;;2.67;0.77;;;;;;;5.35;100.00;99876.72;5075339;28;20113;-49
2021/12/24 05:10:54;;;;;;;0.30;0.30;;;;;;;5.50;100.00;99875.97;5052009;28;20051;-52
2021/12/24 05:13:22;;;;;;;1.35;0.60;;;;;;;5.55;100.00;99873.63;5079560;28;20039;-52
2021/12/24 05:15:51;;;;;;;0.82;0.82;;;;;;;5.48;100.00;99865.63;5079522;28;20088;-53
2021/12/24 05:18:31;;;;;;;1.35;0.80;;;;;;;5.46;100.00;99867.59;5085646;28;20497;-50
2021/12/24 05:23:41;;;;;;;2.47;0.30;;;;;;;5.54;100.00;99870.19;5081440;28;20253;-47
2021/12/24 05:26:07;;;;;;;1.58;1.10;;;;;;;5.59;100.00;99862.59;5086215;28;20466;-50
2021/12/24 05:28:32;;;;;;;1.63;0.60;;;;;;;5.60;100.00;99855.53;5084291;28;20656;-48
2021/12/24 05:30:58;;;;;;;2.20;0.50;;;;;;;5.59;100.00;99856.53;5077696;28;20036;-52
2021/12/24 05:33:23;;;;;;;3.22;1.73;;;;;;;5.55;100.00;99857.84;5071532;28;20037;-50
2021/12/24 05:35:48;;;;;;;0.57;0.50;;;;;;;5.52;100.00;99863.47;5074736;28;20055;-51
2021/12/24 05:38:15;;;;;;;4.47;0.95;;;;;;;5.53;100.00;99858.03;5075570;28;20198;-49
2021/12/24 05:40:41;;;;;;;1.60;0.55;;;;;;;5.51;100.00;99851.31;5080466;28;20107;-53
2021/12/24 05:43:07;;;;;;;4.90;0.38;;;;;;;5.49;100.00;99840.97;5067190;28;20103;-50
2021/12/24 05:45:33;;;;;;;0.75;0.73;;;;;;;5.51;100.00;99840.81;5074424;28;20032;-47
2021/12/24 05:47:58;;;;;;;3.80;0.73;;;;;;;5.57;100.00;99838.28;5082968;28;20025;-52
2021/12/24 05:50:24;;;;;;;2.47;0.93;;;;;;;5.59;100.00;99838.13;5083667;28;20460;-51
2021/12/24 05:52:49;;;;;;;2.45;1.05;;;;;;;5.55;100.00;99844.69;5085859;28;20887;-50
2021/12/24 05:55:15;;;;;;;0.80;0.80;;;;;;;5.53;100.00;99837.00;5085245;28;20078;-50
2021/12/24 05:57:40;;;;;;;5.15;0.93;;;;;;;5.58;100.00;99844.38;5084501;28;20384;-49
2021/12/24 06:00:08;;;;;;;1.50;1.40;;;;;;;5.63;100.00;99840.22;5068239;28;20035;-52
2021/12/24 06:02:34;;;;;;;1.20;1.10;;;;;;;5.65;100.00;99840.88;5085420;28;20032;-49
2021/12/24 06:04:59;;;;;;;2.58;0.90;;;;;;;5.61;100.00;99841.41;5067246;28;20091;-48
2021/12/24 06:07:25;;;;;;;1.45;0.82;;;;;;;5.57;100.00;99840.09;5085355;28;20038;-47
2021/12/24 06:09:50;;;;;;;0.80;0.40;;;;;;;5.53;100.00;99838.81;5067979;28;20059;-51
2021/12/24 06:12:15;;;;;;;1.88;0.93;;;;;;;5.49;100.00;99840.97;5089173;28;20411;-49
2021/12/24 06:14:44;;;;;;;4.32;0.98;;;;;;;5.45;100.00;99843.13;5087824;28;20462;-50
2021/12/24 06:17:15;;;;;;;0.43;0.43;;;;;;;5.44;100.00;99836.22;5082626;28;20444;-49
2021/12/24 06:19:40;;;;;;;1.20;0.75;;;;;;;5.40;100.00;99834.13;5089773;28;20046;-52
2021/12/24 06:22:06;;;;;;;2.45;0.52;;;;;;;5.38;100.00;99839.53;5071482;28;20037;-48
2021/12/24 06:24:31;;;;;;;3.22;1.42;;;;;;;5.40;100.00;99840.19;5077808;28;20038;-50
2021/12/24 06:26:57;;;;;;;2.47;1.63;;;;;;;5.46;100.00;99836.88;5088820;28;20085;-53
2021/12/24 06:29:23;;;;;;;2.22;1.38;;;;;;;5.51;100.00;99835.53;5074622;28;20036;-50
2021/12/24 06:31:49;;;;;;;2.88;0.85;;;;;;;5.55;100.00;99828.94;5070073;28;20032;-47
2021/12/24 06:34:14;;;;;;;1.90;1.40;;;;;;;5.58;100.00;99833.84;5082729;28;20042;-51
2021/12/24 06:36:43;;;;;;;3.20;2.15;;;;;;;5.62;100.00;99845.66;5075563;28;20037;-49
2021/12/24 06:39:08;;;;;;;2.88;1.92;;;;;;;5.67;100.00;99845.94;5076747;28;20047;-49
2021/12/24 06:41:34;;;;;;;5.35;1.20;;;;;;;5.71;100.00;99844.63;5072535;28;20028;-50
2021/12/24 06:44:01;;;;;;;1.48;0.70;;;;;;;5.67;100.00;99859.09;5070349;28;20093;-48
2021/12/24 06:46:27;;;;;;;3.80;1.98;;;;;;;5.69;100.00;99862.38;5073141;28;20031;-47
2021/12/24 06:48:56;;;;;;;1.58;1.10;;;;;;;5.69;100.00;99868.44;5085150;28;20047;-52
2021/12/24 06:51:23;;;;;;;3.13;0.65;;;;;;;5.70;100.00;99869.28;5088536;28;20469;-52
2021/12/24 06:53:48;;;;;;;2.60;1.05;;;;;;;5.69;100.00;99868.44;5080027;28;20017;-51
2021/12/24 06:56:14;;;;;;;1.17;0.98;;;;;;;5.65;100.00;99867.19;5087901;28;20038;-48
2021/12/24 06:58:39;;;;;;;1.17;0.73;;;;;;;5.62;100.00;99866.69;5088728;28;20055;-52
2021/12/24 07:01:05;;;;;;;0.88;0.88;;;;;;;5.59;100.00;99859.97;5087091;28;20056;-52
2021/12/24 07:03:30;;;;;;;0.93;0.43;;;;;;;5.58;100.00;99866.22;5082217;28;20024;-49
2021/12/24 07:05:55;;;;;;;2.65;0.85;;;;;;;5.59;100.00;99867.03;5075771;28;20454;-49
2021/12/24 07:08:21;;;;;;;1.80;0.88;;;;;;;5.62;100.00;99875.41;5088914;28;20373;-48
2021/12/24 07:10:46;;;;;;;2.13;0.75;;;;;;;5.67;100.00;99867.00;5086856;28;20101;-51
2021/12/24 07:13:12;;;;;;;4.88;1.13;;;;;;;5.71;100.00;99873.56;5087833;28;20107;-50
2021/12/24 07:15:37;;;;;;;2.22;0.93;;;;;;;5.71;100.00;99863.03;5082880;28;20511;-49
2021/12/24 07:18:02;;;;;;;2.05;1.00;;;;;;;5.69;100.00;99865.81;5072017;28;20407;-50
2021/12/24 07:20:28;;;;;;;5.10;1.27;;;;;;;5.65;100.00;99861.91;5084365;28;20034;-48
2021/12/24 07:22:53;;;;;;;2.13;1.63;;;;;;;5.68;100.00;99855.50;5068467;28;20032;-49
2021/12/24 07:25:19;;;;;;;1.60;1.35;;;;;;;5.72;100.00;99853.31;5075850;28;20407;-49
2021/12/24 07:27:44;;;;;;;1.92;1.23;;;;;;;5.73;100.00;99855.78;5087656;28;20456;-50
2021/12/24 07:30:12;;;;;;;1.70;1.08;;;;;;;5.76;100.00;99852.00;5087991;28;20136;-49
2021/12/24 07:32:40;;;;;;;1.92;1.45;;;;;;;5.76;100.00;99846.72;5087476;28;20110;-48
2021/12/24 07:35:06;;;;;;;4.57;1.38;;;;;;;5.80;100.00;99840.09;5083727;28;20553;-50
2021/12/24 07:37:32;;;;;;;1.98;1.23;;;;;;;5.77;100.00;99841.28;5072565;28;20115;-51
2021/12/24 07:39:57;;;;;;;3.53;2.22;;;;;;;5.81;100.00;99844.41;5067381;28;20139;-52
2021/12/24 07:42:24;;;;;;;5.03;1.95;;;;;;;5.84;100.00;99844.03;5068178;28;20086;-47
2021/12/24 07:44:49;;;;;;;5.93;1.67;;;;;;;5.80;100.00;99846.19;5084360;28;20032;-50
2021/12/24 07:47:26;;;;;;;3.42;1.15;;;;;;;5.80;100.00;99853.25;5088224;28;20028;-50
2021/12/24 07:50:00;;;;;;;2.25;1.17;;;;;;;5.74;100.00;99857.41;5080868;28;20085;-50
2021/12/24 07:52:25;;;;;;;1.23;0.65;;;;;;;5.73;100.00;99854.94;5068618;28;20062;-51
2021/12/24 07:54:53;;;;;;;1.83;1.52;;;;;;;5.72;100.00;99850.69;5071913;28;20075;-52
2021/12/24 07:57:20;;;;;;;3.97;2.03;;;;;;;5.74;100.00;99846.91;5087467;28;20028;-49
2021/12/24 07:59:46;;;;;;;2.95;1.65;;;;;;;5.74;100.00;99849.53;5069155;28;20028;-48
2021/12/24 08:02:21;;;;;;;3.15;1.50;;;;;;;5.75;100.00;99848.53;5086298;28;20385;-48
2021/12/24 08:04:46;;;;;;;7.20;2.28;;;;;;;5.75;100.00;99851.16;5073550;28;20024;-49
2021/12/24 08:07:14;;;;;;;4.75;1.73;;;;;;;5.70;100.00;99853.47;5068776;28;20405;-50
2021/12/24 08:09:40;;;;;;;1.77;1.38;;;;;;;5.72;100.00;99856.75;5072628;28;20027;-50
2021/12/24 08:12:07;;;;;;;4.13;2.05;;;;;;;5.73;100.00;99862.84;5086989;28;20381;-53
2021/12/24 08:14:34;;;;;;;1.48;1.10;;;;;;;5.71;100.00;99859.59;5069340;28;20033;-50
2021/12/24 08:16:59;;;;;;;1.45;0.55;;;;;;;5.73;100.00;99857.56;5069219;28;20020;-52
2021/12/24 08:19:25;;;;;;;3.75;1.73;;;;;;;5.72;100.00;99856.75;5086790;28;20036;-49
2021/12/24 08:21:50;;;;;;;4.38;1.75;;;;;;;5.73;100.00;99863.69;5071062;28;20146;-51
2021/12/24 08:24:16;;;;;;;4.22;1.25;;;;;;;5.77;100.00;99864.13;5071190;28;20040;-48
2021/12/24 08:26:42;;;;;;;4.15;1.95;;;;;;;5.78;100.00;99868.41;5081031;28;20028;-53
2021/12/24 08:29:07;;;;;;;2.58;0.98;;;;;;;5.78;100.00;99853.47;5072783;28;20040;-48
2021/12/24 08:31:34;;;;;;;2.50;1.95;;;;;;;5.76;100.00;99847.53;5079228;28;20028;-48
2021/12/24 08:34:01;;;;;;;1.48;1.00;;;;;;;5.75;100.00;99845.88;5071662;28;20032;-53
2021/12/24 08:36:26;;;;;;;4.88;1.60;;;;;;;5.77;100.00;99849.16;5074102;28;20044;-48
2021/12/24 08:38:52;;;;;;;2.90;1.02;;;;;;;5.79;100.00;99836.66;5068260;28;20350;-53
2021/12/24 08:41:17;;;;;;;3.83;1.90;;;;;;;5.82;100.00;99841.56;5078663;28;20039;-53
2021/12/24 08:43:42;;;;;;;1.15;1.10;;;;;;;5.84;100.00;99849.31;5075882;28;20039;-50
2021/12/24 08:46:08;;;;;;;1.63;0.85;;;;;;;5.81;100.00;99845.22;5079871;28;20416;-48
2021/12/24 08:48:33;;;;;;;2.13;1.15;;;;;;;5.80;100.00;99842.75;5083648;28;20028;-49
2021/12/24 08:50:59;;;;;;;2.85;1.30;;;;;;;5.80;100.00;99842.75;5077960;28;20512;-52
2021/12/24 08:53:24;;;;;;;2.17;1.13;;;;;;;5.82;100.00;99843.38;5071419;28;20149;-51
2021/12/24 08:55:50;;;;;;;2.20;1.58;;;;;;;5.84;100.00;99836.97;5073992;28;20039;-53
2021/12/24 08:58:15;;;;;;;2.05;1.40;;;;;;;5.85;100.00;99846.47;5053673;28;20070;-52
2021/12/24 09:00:41;;;;;;;3.80;1.17;;;;;;;5.90;100.00;99838.88;5084467;28;20024;-49
2021/12/24 09:03:07;;;;;;;6.85;2.72;;;;;;;5.95;100.00;99837.56;5080845;28;20040;-51
2021/12/24 09:05:32;;;;;;;2.47;1.20;;;;;;;6.01;100.00;99839.47;5067531;28;20170;-52
2021/12/24 09:07:58;;;;;;;2.05;1.23;;;;;;;6.07;100.00;99838.78;5071442;28;20504;-50
2021/12/24 09:10:24;;;;;;;2.85;2.03;;;;;;;6.13;100.00;99827.53;5067902;28;20246;-52
2021/12/24 09:12:49;;;;;;;6.60;1.58;;;;;;;6.17;100.00;99834.09;5071738;28;20378;-51
2021/12/24 09:15:17;;;;;;;4.30;1.58;;;;;;;6.18;100.00;99833.09;5077022;28;20123;-51
2021/12/24 09:17:45;;;;;;;1.20;1.08;;;;;;;6.17;100.00;99828.84;5072868;28;20526;-47
2021/12/24 09:20:18;;;;;;;2.90;1.85;;;;;;;6.17;100.00;99820.94;5086098;28;20089;-53
2021/12/24 09:22:48;;;;;;;6.57;2.10;;;;;;;6.14;100.00;99823.91;5083505;28;20135;-50
2021/12/24 09:25:13;;;;;;;6.00;2.03;;;;;;;6.17;100.00;99828.84;5065694;28;20089;-48
2021/12/24 09:27:39;;;;;;;5.70;2.40;;;;;;;6.21;100.00;99822.19;5072128;28;20027;-51
2021/12/24 09:30:06;;;;;;;4.55;2.08;;;;;;;6.26;100.00;99827.75;5084928;28;20039;-50
2021/12/24 09:32:31;;;;;;;4.57;2.33;;;;;;;6.30;100.00;99820.34;5070335;28;20054;-53
2021/12/24 09:34:57;;;;;;;5.82;1.73;;;;;;;6.32;100.00;99815.69;5085106;28;20032;-49
2021/12/24 09:37:22;;;;;;;2.55;1.08;;;;;;;6.32;100.00;99806.00;5078482;28;20028;-49
2021/12/24 09:39:48;;;;;;;5.63;1.60;;;;;;;6.30;100.00;99807.97;5083394;28;20389;-49
2021/12/24 09:42:14;;;;;;;6.95;3.22;;;;;;;6.28;100.00;99807.34;5080047;28;20068;-50
2021/12/24 09:44:40;;;;;;;1.95;1.42;;;;;;;6.32;100.00;99806.00;5068502;28;20176;-48
2021/12/24 09:47:06;;;;;;;2.67;1.30;;;;;;;6.36;100.00;99806.44;5071928;28;20024;-47
2021/12/24 09:49:32;;;;;;;1.88;1.33;;;;;;;6.43;100.00;99817.06;5082555;28;20481;-50
2021/12/24 09:51:59;;;;;;;4.18;1.80;;;;;;;6.48;100.00;99807.63;5067741;28;20033;-50
2021/12/24 09:54:25;;;;;;;10.70;2.67;;;;;;;6.55;100.00;99798.00;5083244;28;20032;-51
2021/12/24 09:56:53;;;;;;;6.15;1.60;;;;;;;6.66;100.00;99790.63;5067240;28;20051;-50
2021/12/24 09:59:19;;;;;;;11.30;2.40;;;;;;;6.72;100.00;99800.47;5066919;28;20119;-48
2021/12/24 10:01:55;;;;;;;7.50;3.42;;;;;;;6.81;100.00;99799.34;5081395;28;20155;-52
2021/12/24 10:04:30;;;;;;;4.60;1.83;;;;;;;6.86;100.00;99801.44;5084892;28;20090;-47
2021/12/24 10:06:59;;;;;;;5.75;1.95;;;;;;;6.89;100.00;99790.53;5077054;28;20432;-48
2021/12/24 10:09:31;;;;;;;6.78;2.97;;;;;;;6.94;100.00;99789.00;5066388;28;20410;-50
2021/12/24 10:11:59;;;;;;;4.55;2.42;;;;;;;6.97;100.00;99795.72;5082827;28;20068;-48
2021/12/24 10:14:36;;;;;;;8.27;3.15;;;;;;;6.99;100.00;99794.50;5085545;28;20036;-49
2021/12/24 10:17:03;;;;;;;3.80;2.33;;;;;;;7.01;100.00;99798.78;5084741;28;20032;-52
2021/12/24 10:19:28;;;;;;;10.63;3.70;;;;;;;7.02;100.00;99788.03;5080713;28;20144;-49
2021/12/24 10:22:03;;;;;;;6.82;2.22;;;;;;;7.12;100.00;99775.41;5077527;28;20032;-48
2021/12/24 10:24:29;;;;;;;11.82;4.07;;;;;;;7.15;100.00;99758.38;5083764;28;20052;-51
2021/12/24 10:26:59;;;;;;;6.18;2.35;;;;;;;7.07;100.00;99763.78;5077113;28;20070;-53
2021/12/24 10:29:33;;;;;;;9.38;3.10;;;;;;;6.98;100.00;99768.34;5083371;28;20056;-47
2021/12/24 10:32:11;;;;;;;17.15;2.20;;;;;;;6.97;100.00;99767.53;5068716;28;20121;-47
2021/12/24 10:34:39;;;;;;;18.10;3.17;;;;;;;7.00;100.00;99774.25;5082432;28;20028;-48
2021/12/24 10:37:24;;;;;;;12.93;3.58;;;;;;;7.05;100.00;99768.41;5068341;28;20147;-54
2021/12/24 10:39:53;;;;;;;5.60;2.63;;;;;;;7.08;100.00;99760.97;5081459;28;20186;-52
2021/12/24 10:42:21;;;;;;;4.20;1.88;;;;;;;7.14;100.00;99760.22;5069905;28;20479;-52
2021/12/24 10:44:48;;;;;;;7.18;2.38;;;;;;;7.25;100.00;99758.09;5081537;28;20194;-47
2021/12/24 10:47:15;;;;;;;8.57;2.17;;;;;;;7.27;100.00;99769.28;5081053;28;20115;-50
2021/12/24 10:55:15;;;;;;;12.60;5.50;;;;;;;7.33;100.00;99757.97;5078650;28;20031;-52
2021/12/24 10:57:46;;;;;;;3.13;2.70;;;;;;;7.37;100.00;99751.31;5068072;28;20024;-52
2021/12/24 11:00:41;;;;;;;8.13;2.97;;;;;;;7.45;100.00;99743.28;5076354;28;20428;-52
2021/12/24 11:03:14;;;;;;;4.57;2.97;;;;;;;7.54;100.00;99744.81;5082923;28;20040;-49
2021/12/24 11:05:42;;;;;;;7.40;3.15;;;;;;;7.63;100.00;99746.28;5078546;28;20052;-50
2021/12/24 11:08:17;;;;;;;3.70;2.45;;;;;;;7.69;100.00;99739.44;5077167;28;20040;-52
2021/12/24 11:10:46;;;;;;;5.68;2.75;;;;;;;7.70;100.00;99746.38;5077941;28;20032;-50
2021/12/24 11:13:27;;;;;;;7.72;2.53;;;;;;;7.62;100.00;99746.50;5088891;28;20485;-50
2021/12/24 11:15:54;;;;;;;;;;;;;;;7.58;100.00;99735.50;5074777;28;20020;-51
2021/12/24 11:18:25;;;;;;;8.35;3.05;;;;;;;7.64;100.00;99741.81;5074527;28;19920;-53
2021/12/24 11:20:58;;;;;;;4.30;3.15;;;;;;;7.70;100.00;99750.81;5076469;28;20032;-49
2021/12/24 11:23:30;;;;;;;2.30;1.83;;;;;;;7.73;100.00;99753.91;5082402;28;20035;-48
2021/12/24 11:26:03;;;;;;;6.88;3.88;;;;;;;7.77;100.00;99756.97;5075317;28;20028;-49
2021/12/24 11:28:30;;;;;;;5.22;2.75;;;;;;;7.76;100.00;99757.97;5074190;28;20535;-48
2021/12/24 11:30:58;;;;;;;11.60;4.25;;;;;;;7.74;100.00;99749.44;5069314;28;20040;-50
2021/12/24 11:33:26;;;;;;;5.70;3.65;;;;;;;7.76;100.00;99747.41;5084250;28;20043;-49
2021/12/24 11:35:54;;;;;;;14.20;4.32;;;;;;;7.79;100.00;99754.94;5075680;28;20029;-53
2021/12/24 11:38:26;;;;;;;12.55;5.72;;;;;;;7.79;100.00;99753.13;5076115;28;20028;-49
2021/12/24 11:40:54;;;;;;;9.32;5.53;;;;;;;7.75;100.00;99735.25;5085237;28;20481;-54
2021/12/24 11:43:21;;;;;;;16.35;4.97;;;;;;;7.77;100.00;99727.94;5087776;28;20036;-50
2021/12/24 11:45:47;;;;;;;16.58;6.53;;;;;;;7.81;100.00;99737.09;5084356;28;20110;-49
2021/12/24 11:48:13;;;;;;;12.30;5.15;;;;;;;7.82;100.00;99738.72;5087384;28;20023;-51
2021/12/24 11:50:39;;;;;;;15.50;6.97;;;;;;;7.83;100.00;99741.19;5087332;28;20059;-48
2021/12/24 11:53:08;;;;;;;18.92;6.15;;;;;;;7.81;100.00;99731.81;5087478;28;20431;-48
2021/12/24 11:55:43;;;;;;;14.63;5.00;;;;;;;7.79;100.00;99728.56;5078376;28;20032;-53
2021/12/24 11:58:16;;;;;;;9.13;3.85;;;;;;;7.78;100.00;99729.56;5068791;28;20032;-55
2021/12/24 12:00:45;;;;;;;13.50;4.45;;;;;;;7.73;100.00;99729.34;5075871;28;20451;-47
2021/12/24 12:03:33;;;;;;;11.52;4.60;;;;;;;7.76;100.00;99731.59;5077749;28;20040;-47
2021/12/24 12:06:00;;;;;;;9.27;3.58;;;;;;;7.77;100.00;99727.94;5071342;28;20028;-49
2021/12/24 12:08:25;;;;;;;21.70;5.65;;;;;;;7.78;100.00;99726.94;5075648;28;20086;-48
2021/12/24 12:10:56;;;;;;;9.95;3.90;;;;;;;7.79;100.00;99718.00;5077918;28;20036;-49
2021/12/24 12:13:54;;;;;;;11.57;6.57;;;;;;;7.78;100.00;99717.19;5087133;28;20037;-48
2021/12/24 12:16:29;;;;;;;15.75;4.63;;;;;;;7.79;100.00;99724.09;5034742;28;20045;-49
2021/12/24 12:19:42;;;;;;;12.15;5.00;;;;;;;7.79;100.00;99720.63;5084389;28;20043;-50
2021/12/24 12:25:34;;;;;;;8.35;3.13;;;;;;;7.79;100.00;99704.81;5055095;28;20478;-50
2021/12/24 12:28:02;;;;;;;7.43;2.85;;;;;;;7.82;100.00;99702.63;5067702;28;20028;-53
2021/12/24 12:30:39;;;;;;;8.88;4.65;;;;;;;7.89;100.00;99702.66;5082808;28;20072;-51
2021/12/24 12:33:13;;;;;;;15.25;6.25;;;;;;;7.94;100.00;99699.44;5083224;28;20036;-54
2021/12/24 12:36:02;;;;;;;11.35;5.13;;;;;;;8.02;100.00;99689.53;5081015;28;20119;-51
2021/12/24 12:38:39;;;;;;;13.13;5.38;;;;;;;8.11;100.00;99686.75;5083709;28;20036;-52
2021/12/24 12:41:37;;;;;;;23.15;4.38;;;;;;;8.19;100.00;99676.84;5077365;28;20038;-51
2021/12/24 12:44:11;;;;;;;12.43;4.68;;;;;;;8.26;100.00;99672.44;5075879;28;20081;-49
2021/12/24 12:46:47;;;;;;;13.82;4.07;;;;;;;8.26;100.00;99668.94;5075018;28;20025;-49
2021/12/24 12:49:19;;;;;;;14.85;4.60;;;;;;;8.28;100.00;99669.56;5065563;28;20119;-49
2021/12/24 12:52:07;;;;;;;12.55;4.65;;;;;;;8.27;100.00;99662.66;5066679;28;20378;-49
2021/12/24 12:54:50;;;;;;;16.30;5.68;;;;;;;8.27;100.00;99654.75;5064205;28;20115;-50
2021/12/24 12:57:20;;;;;;;6.78;2.92;;;;;;;8.24;100.00;99657.78;5065943;28;20030;-49
2021/12/24 13:00:10;;;;;;;11.82;4.60;;;;;;;8.24;100.00;99660.44;5066211;28;20085;-52
2021/12/24 13:03:07;;;;;;;16.08;3.00;;;;;;;8.20;100.00;99661.81;5062311;28;20043;-51
2021/12/24 13:05:41;;;;;;;7.72;2.92;;;;;;;8.15;100.00;99658.94;5060067;28;20028;-47
2021/12/24 13:08:20;;;;;;;9.40;3.72;;;;;;;8.14;100.00;99655.50;5066601;28;20039;-49
2021/12/24 13:11:07;;;;;;;7.03;3.67;;;;;;;8.16;100.00;99642.06;5059847;28;20033;-51
2021/12/24 13:13:52;;;;;;;8.32;2.35;;;;;;;8.17;100.00;99641.91;5063286;28;20551;-52
2021/12/24 13:16:20;;;;;;;9.93;4.38;;;;;;;8.19;100.00;99641.72;5049695;28;20037;-49
2021/12/24 13:18:59;;;;;;;7.50;4.38;;;;;;;8.21;100.00;99639.66;5063799;28;20017;-52
2021/12/24 13:24:11;;;;;;;9.85;3.28;;;;;;;8.26;100.00;99637.25;5073882;28;20080;-49
2021/12/24 13:26:37;;;;;;;9.32;3.25;;;;;;;8.27;100.00;99625.69;5050619;28;20033;-49
2021/12/24 13:29:16;;;;;;;4.72;2.22;;;;;;;8.29;100.00;99623.69;5062983;28;20032;-50